Orlando, Florida
Traffic Map
Current Weather Conditions
Orlando, Florida
Scattered Clouds
Scattered Clouds
73°
Feels Like: 73°
Wind Chill: 73° Ceiling: Unl
Heat Index: 73° Visibility: 10mi
Dew Point: 50° Wind: 12mph
Humidity: 44% Direction: 170° (S)
Pressure: 30.19in Gusts: 0mph
Raw Report DataKORL 011753Z 17010KT 10SM SCT055 23/10 A3019 RMK AO2 SLP228 T02280100 10228 20094 58026
Traffic Incident Summary
Active as of:
Severity:
Category:
InformationThere was an issue retrieving the traffic information for this location. Please try a different location or try again shortly.
Advertisements
Track Severe Weather on mobile